Terminal Aerodrome Forecast
Issued by NWS Sioux Falls, SD

Home | Current Version | Previous Version | Text Only | Print | Product List | Glossary Off
Versions: 1 2 3 4 5 6 7 8 9 10 11 12 13 14 15 16 17 18 19 20 21 22

902
FTUS43 KFSD 191540 AAB
TAFFSD
TAF AMD
KFSD 191540Z 1916/2012 17008KT 1/2SM FG OVC005
      TEMPO 1916/1919 1SM BR OVC003
     FM192000 16009KT 2SM BR OVC006
     FM200000 15008KT 3SM -DZ BR OVC008
     FM200200 15008KT 1 1/2SM -DZ BR OVC003=

USA.gov is the U.S. government's official web portal to all federal, state and local government web resources and services.